createdAt,value
2019-04-10T00:00:23.156Z,6.57
2019-04-10T00:01:23.668Z,6.59
2019-04-10T00:02:23.807Z,6.63
2019-04-10T00:03:31.773Z,6.66
2019-04-10T00:04:23.909Z,6.63
2019-04-10T00:05:23.552Z,6.60
2019-04-10T00:06:23.707Z,6.60
2019-04-10T00:07:23.561Z,6.57
2019-04-10T00:08:22.995Z,6.56
2019-04-10T00:09:23.151Z,6.46
2019-04-10T00:10:23.595Z,6.49
2019-04-10T00:11:22.906Z,6.41
2019-04-10T00:12:23.335Z,6.46
2019-04-10T00:13:22.828Z,6.49
2019-04-10T00:14:22.838Z,6.31
2019-04-10T00:15:22.791Z,6.41
2019-04-10T00:16:22.794Z,6.51
2019-04-10T00:17:22.898Z,6.49
2019-04-10T00:18:22.755Z,6.38
2019-04-10T00:19:22.758Z,6.35
2019-04-10T00:20:22.740Z,6.38
2019-04-10T00:21:23.017Z,6.33
2019-04-10T00:22:22.718Z,6.26
2019-04-10T00:23:22.782Z,6.31
2019-04-10T00:24:22.696Z,6.30
2019-04-10T00:25:22.693Z,6.26
2019-04-10T00:26:23.779Z,6.22
2019-04-10T00:27:22.788Z,6.11
2019-04-10T00:28:23.446Z,6.30
2019-04-10T00:29:22.646Z,6.30
2019-04-10T00:30:22.633Z,6.17
2019-04-10T00:31:22.972Z,6.16
2019-04-10T00:32:23.680Z,6.27
2019-04-10T00:33:22.937Z,6.20
2019-04-10T00:34:23.309Z,6.26
2019-04-10T00:35:23.541Z,6.09
2019-04-10T00:36:22.572Z,6.20
2019-04-10T00:37:27.138Z,6.11
2019-04-10T00:38:24.055Z,6.24
2019-04-10T00:39:22.559Z,6.12
2019-04-10T00:40:23.573Z,6.08
2019-04-10T00:41:22.517Z,6.09
2019-04-10T00:42:23.092Z,6.11
2019-04-10T00:43:22.666Z,6.17
2019-04-10T00:44:23.670Z,6.07
2019-04-10T00:45:22.488Z,6.11
2019-04-10T00:46:22.488Z,6.07
2019-04-10T00:47:23.266Z,6.09
2019-04-10T00:48:22.457Z,6.08
2019-04-10T00:49:22.430Z,6.02
2019-04-10T00:50:22.420Z,6.02
2019-04-10T00:51:23.448Z,6.04
2019-04-10T00:52:22.428Z,6.01
2019-04-10T00:53:23.222Z,6.02
2019-04-10T00:54:22.380Z,5.97
2019-04-10T00:55:22.367Z,6.02
2019-04-10T00:56:22.362Z,6.04
2019-04-10T00:57:23.451Z,5.98
2019-04-10T00:58:22.569Z,6.02
2019-04-10T00:59:22.351Z,5.97
2019-04-10T01:00:23.549Z,5.91
2019-04-10T01:01:23.552Z,5.91
2019-04-10T01:02:22.684Z,5.94
2019-04-10T01:03:23.530Z,5.90
2019-04-10T01:04:22.384Z,5.94
2019-04-10T01:05:22.889Z,5.93
2019-04-10T01:06:22.249Z,5.94
2019-04-10T01:07:32.603Z,5.87
2019-04-10T01:08:23.289Z,5.80
2019-04-10T01:09:22.223Z,5.80
2019-04-10T01:10:22.210Z,5.83
2019-04-10T01:11:23.160Z,5.90
2019-04-10T01:12:22.203Z,5.75
2019-04-10T01:13:23.000Z,5.84
2019-04-10T01:14:23.324Z,5.79
2019-04-10T01:15:22.610Z,5.83
2019-04-10T01:16:23.093Z,5.82
2019-04-10T01:17:22.284Z,5.79
2019-04-10T01:18:22.122Z,5.79
2019-04-10T01:19:22.112Z,5.72
2019-04-10T01:20:22.104Z,5.64
2019-04-10T01:21:22.177Z,5.62
2019-04-10T01:22:23.921Z,5.64
2019-04-10T01:23:22.582Z,5.62
2019-04-10T01:24:22.067Z,5.72
2019-04-10T01:25:22.120Z,5.65
2019-04-10T01:26:23.008Z,5.66
2019-04-10T01:27:22.028Z,5.64
2019-04-10T01:28:22.727Z,5.64
2019-04-10T01:29:22.030Z,5.62
2019-04-10T01:30:22.282Z,5.62
2019-04-10T01:31:21.992Z,5.62
2019-04-10T01:32:21.977Z,5.62
2019-04-10T01:33:22.801Z,5.59
2019-04-10T01:34:21.962Z,5.57
2019-04-10T01:35:22.438Z,5.66
2019-04-10T01:36:22.790Z,5.62
2019-04-10T01:37:22.937Z,5.61
2019-04-10T01:38:22.020Z,5.62
2019-04-10T01:39:22.244Z,5.53
2019-04-10T01:40:21.908Z,5.61
2019-04-10T01:41:21.887Z,5.48
2019-04-10T01:42:22.853Z,5.47
2019-04-10T01:43:22.521Z,5.44
2019-04-10T01:44:22.750Z,5.50
2019-04-10T01:45:21.835Z,5.48
2019-04-10T01:46:22.306Z,5.50
2019-04-10T01:47:21.816Z,5.48
2019-04-10T01:48:21.820Z,5.53
2019-04-10T01:49:21.835Z,5.51
2019-04-10T01:50:22.181Z,5.50
2019-04-10T01:51:21.777Z,5.48
2019-04-10T01:52:22.724Z,5.41
2019-04-10T01:53:21.855Z,5.43
2019-04-10T01:54:22.584Z,5.41
2019-04-10T01:55:25.819Z,5.38
2019-04-10T01:56:30.209Z,5.50
2019-04-10T01:57:22.713Z,5.41
2019-04-10T01:58:21.716Z,5.33
2019-04-10T01:59:21.733Z,5.30
2019-04-10T02:00:21.680Z,5.38
2019-04-10T02:01:21.689Z,5.38
2019-04-10T02:02:21.654Z,5.33
2019-04-10T02:03:22.240Z,5.29
2019-04-10T02:04:22.692Z,5.29
2019-04-10T02:05:22.699Z,5.26
2019-04-10T02:06:21.614Z,5.28
2019-04-10T02:07:23.001Z,5.32
2019-04-10T02:08:21.597Z,5.35
2019-04-10T02:09:21.601Z,5.33
2019-04-10T02:10:21.574Z,5.23
2019-04-10T02:11:21.797Z,5.30
2019-04-10T02:12:21.548Z,5.18
2019-04-10T02:13:21.599Z,5.17
2019-04-10T02:14:22.409Z,5.14
2019-04-10T02:15:21.786Z,5.20
2019-04-10T02:16:21.505Z,5.20
2019-04-10T02:17:22.237Z,5.15
2019-04-10T02:18:21.504Z,5.18
2019-04-10T02:19:21.907Z,5.11
2019-04-10T02:20:21.491Z,5.07
2019-04-10T02:21:21.456Z,5.11
2019-04-10T02:22:22.528Z,5.02
2019-04-10T02:23:22.549Z,4.93
2019-04-10T02:24:21.437Z,5.04
2019-04-10T02:25:21.981Z,4.89
2019-04-10T02:26:21.413Z,4.96
2019-04-10T02:27:22.396Z,4.93
2019-04-10T02:28:21.382Z,4.89
2019-04-10T02:29:21.800Z,4.93
2019-04-10T02:30:21.842Z,4.96
2019-04-10T02:31:21.989Z,4.94
2019-04-10T02:32:21.381Z,4.90
2019-04-10T02:33:22.866Z,4.94
2019-04-10T02:34:21.964Z,4.93
2019-04-10T02:35:22.545Z,4.90
2019-04-10T02:36:21.401Z,4.92
2019-04-10T02:37:22.895Z,4.89
2019-04-10T02:38:39.042Z,4.87
2019-04-10T02:39:29.700Z,4.80
2019-04-10T02:40:23.698Z,4.80
2019-04-10T02:41:21.587Z,4.77
2019-04-10T02:42:22.450Z,4.80
2019-04-10T02:43:21.266Z,4.77
2019-04-10T02:44:22.985Z,4.78
2019-04-10T02:45:21.943Z,4.82
2019-04-10T02:46:21.969Z,4.80
2019-04-10T02:47:21.620Z,4.77
2019-04-10T02:48:21.167Z,4.68
2019-04-10T02:49:22.498Z,4.73
2019-04-10T02:50:21.296Z,4.77
2019-04-10T02:51:22.931Z,4.77
2019-04-10T02:52:22.592Z,4.66
2019-04-10T02:53:21.586Z,4.73
2019-04-10T02:54:21.420Z,4.60
2019-04-10T02:55:21.117Z,4.63
2019-04-10T02:56:23.013Z,4.63
2019-04-10T02:57:21.526Z,4.71
2019-04-10T02:58:22.288Z,4.70
2019-04-10T02:59:22.812Z,4.66
2019-04-10T03:00:22.465Z,4.70
2019-04-10T03:01:21.075Z,4.62
2019-04-10T03:02:22.035Z,4.60
2019-04-10T03:03:22.368Z,4.68
2019-04-10T03:04:21.097Z,4.62
2019-04-10T03:05:22.941Z,4.63
2019-04-10T03:06:20.995Z,4.49
2019-04-10T03:07:22.047Z,4.48
2019-04-10T03:08:37.096Z,4.49
2019-04-10T03:09:39.029Z,4.49
2019-04-10T03:10:29.733Z,4.45
2019-04-10T03:11:23.742Z,4.50
2019-04-10T03:12:21.915Z,4.45
2019-04-10T03:13:21.884Z,4.45
2019-04-10T03:14:21.297Z,4.53
2019-04-10T03:15:20.926Z,4.45
2019-04-10T03:16:21.619Z,4.45
2019-04-10T03:17:20.858Z,4.40
2019-04-10T03:18:21.021Z,4.40
2019-04-10T03:19:21.340Z,4.40
2019-04-10T03:20:20.856Z,4.38
2019-04-10T03:21:20.857Z,4.42
2019-04-10T03:22:20.873Z,4.49
2019-04-10T03:23:21.083Z,4.40
2019-04-10T03:24:21.277Z,4.38
2019-04-10T03:25:21.242Z,4.49
2019-04-10T03:26:21.535Z,4.40
2019-04-10T03:27:20.769Z,4.34
2019-04-10T03:28:20.885Z,4.28
2019-04-10T03:29:21.789Z,4.30
2019-04-10T03:30:22.995Z,4.23
2019-04-10T03:31:22.421Z,4.17
2019-04-10T03:32:21.567Z,4.12
2019-04-10T03:33:26.074Z,4.12
2019-04-10T03:34:22.826Z,4.05
2019-04-10T03:35:20.758Z,4.12
2019-04-10T03:36:21.192Z,4.14
2019-04-10T03:37:20.665Z,4.05
2019-04-10T03:38:21.621Z,4.02
2019-04-10T03:39:21.602Z,4.13
2019-04-10T03:40:21.648Z,4.10
2019-04-10T03:41:20.608Z,4.10
2019-04-10T03:42:21.045Z,4.04
2019-04-10T03:43:21.570Z,3.96
2019-04-10T03:44:20.799Z,3.99
2019-04-10T03:45:20.564Z,3.98
2019-04-10T03:46:21.485Z,3.96
2019-04-10T03:47:20.570Z,3.99
2019-04-10T03:48:20.537Z,3.99
2019-04-10T03:49:20.537Z,3.92
2019-04-10T03:50:20.508Z,3.96
2019-04-10T03:51:20.684Z,3.96
2019-04-10T03:52:21.093Z,3.98
2019-04-10T03:53:20.510Z,3.84
2019-04-10T03:54:20.775Z,3.81
2019-04-10T03:55:20.974Z,3.95
2019-04-10T03:56:21.356Z,3.87
2019-04-10T03:57:20.643Z,3.86
2019-04-10T03:58:20.426Z,3.87
2019-04-10T03:59:20.422Z,3.78
2019-04-10T04:00:21.038Z,3.69
2019-04-10T04:01:20.499Z,3.77
2019-04-10T04:02:20.387Z,3.77
2019-04-10T04:03:20.513Z,3.68
2019-04-10T04:04:20.371Z,3.63
2019-04-10T04:05:20.456Z,3.73
2019-04-10T04:06:20.368Z,3.62
2019-04-10T04:07:21.022Z,3.73
2019-04-10T04:08:21.463Z,3.66
2019-04-10T04:09:20.324Z,3.62
2019-04-10T04:10:20.527Z,3.69
2019-04-10T04:11:20.292Z,3.58
2019-04-10T04:12:20.317Z,3.53
2019-04-10T04:13:21.555Z,3.51
2019-04-10T04:14:20.265Z,3.56
2019-04-10T04:15:20.249Z,3.59
2019-04-10T04:16:20.240Z,3.45
2019-04-10T04:17:20.227Z,3.42
2019-04-10T04:18:21.284Z,3.50
2019-04-10T04:19:20.222Z,3.41
2019-04-10T04:20:21.133Z,3.41
2019-04-10T04:21:20.200Z,3.48
2019-04-10T04:22:20.847Z,3.42
2019-04-10T04:23:20.162Z,3.42
2019-04-10T04:24:22.501Z,3.32
2019-04-10T04:25:20.145Z,3.37
2019-04-10T04:26:21.196Z,3.36
2019-04-10T04:27:20.127Z,3.47
2019-04-10T04:28:20.141Z,3.42
2019-04-10T04:29:20.574Z,3.40
2019-04-10T04:30:20.440Z,3.36
2019-04-10T04:31:20.253Z,3.21
2019-04-10T04:32:20.068Z,3.25
2019-04-10T04:33:20.932Z,3.34
2019-04-10T04:34:20.893Z,3.28
2019-04-10T04:35:20.078Z,3.19
2019-04-10T04:36:20.393Z,3.22
2019-04-10T04:37:20.813Z,3.21
2019-04-10T04:38:20.107Z,3.19
2019-04-10T04:39:26.232Z,3.18
2019-04-10T04:40:21.747Z,3.18
2019-04-10T04:41:19.977Z,3.13
2019-04-10T04:42:20.211Z,3.22
2019-04-10T04:43:21.669Z,3.19
2019-04-10T04:44:20.334Z,3.07
2019-04-10T04:45:19.927Z,3.11
2019-04-10T04:46:20.544Z,3.05
2019-04-10T04:47:19.933Z,3.10
2019-04-10T04:48:20.107Z,3.00
2019-04-10T04:49:20.676Z,3.03
2019-04-10T04:50:20.041Z,3.04
2019-04-10T04:51:19.887Z,3.07
2019-04-10T04:52:20.435Z,3.07
2019-04-10T04:53:19.867Z,3.03
2019-04-10T04:54:19.869Z,3.01
2019-04-10T04:55:19.889Z,3.05
2019-04-10T04:56:19.984Z,3.01
2019-04-10T04:57:20.482Z,2.98
2019-04-10T04:58:20.255Z,3.04
2019-04-10T04:59:20.572Z,2.93
2019-04-10T05:00:19.784Z,2.89
2019-04-10T05:01:19.759Z,2.97
2019-04-10T05:02:19.988Z,2.97
2019-04-10T05:03:20.756Z,2.97
2019-04-10T05:04:19.751Z,2.95
2019-04-10T05:05:19.759Z,2.95
2019-04-10T05:06:20.106Z,2.89
2019-04-10T05:07:20.327Z,2.95
2019-04-10T05:08:19.721Z,2.93
2019-04-10T05:09:30.212Z,2.95
2019-04-10T05:10:20.919Z,2.83
2019-04-10T05:11:20.464Z,2.90
2019-04-10T05:12:20.233Z,2.87
2019-04-10T05:13:19.625Z,3.01
2019-04-10T05:14:19.649Z,3.01
2019-04-10T05:15:20.544Z,3.01
2019-04-10T05:16:20.586Z,3.05
2019-04-10T05:17:20.005Z,3.10
2019-04-10T05:18:19.593Z,3.01
2019-04-10T05:19:19.564Z,3.08
2019-04-10T05:20:19.551Z,3.11
2019-04-10T05:21:19.541Z,3.05
2019-04-10T05:22:19.526Z,3.13
2019-04-10T05:23:19.541Z,3.08
2019-04-10T05:24:19.926Z,3.08
2019-04-10T05:25:19.494Z,3.08
2019-04-10T05:26:20.672Z,3.13
2019-04-10T05:27:19.477Z,3.21
2019-04-10T05:28:20.407Z,3.18
2019-04-10T05:29:19.689Z,3.21
2019-04-10T05:30:20.597Z,3.22
2019-04-10T05:31:19.435Z,3.18
2019-04-10T05:32:19.420Z,3.19
2019-04-10T05:33:20.428Z,3.18
2019-04-10T05:34:19.909Z,3.16
2019-04-10T05:35:19.415Z,3.21
2019-04-10T05:36:19.506Z,3.14
2019-04-10T05:37:19.389Z,3.13
2019-04-10T05:38:19.352Z,3.18
2019-04-10T05:39:19.380Z,3.19
2019-04-10T05:40:19.656Z,3.14
2019-04-10T05:41:19.700Z,3.28
2019-04-10T05:42:20.531Z,3.32
2019-04-10T05:43:19.943Z,3.32
2019-04-10T05:44:20.130Z,3.34
2019-04-10T05:45:19.314Z,3.23
2019-04-10T05:46:19.273Z,3.40
2019-04-10T05:47:19.377Z,3.41
2019-04-10T05:48:21.835Z,3.36
2019-04-10T05:49:20.542Z,3.36
2019-04-10T05:50:19.457Z,3.32
2019-04-10T05:51:19.272Z,3.37
2019-04-10T05:52:20.257Z,3.28
2019-04-10T05:53:20.310Z,3.32
2019-04-10T05:54:19.288Z,3.34
2019-04-10T05:55:20.358Z,3.28
2019-04-10T05:56:19.664Z,3.41
2019-04-10T05:57:19.999Z,3.37
2019-04-10T05:58:19.628Z,3.44
2019-04-10T05:59:19.602Z,3.28
2019-04-10T06:00:19.131Z,3.34
2019-04-10T06:01:31.335Z,3.37
2019-04-10T06:02:20.142Z,3.42
2019-04-10T06:03:19.105Z,3.47
2019-04-10T06:04:19.095Z,3.45
2019-04-10T06:05:20.200Z,3.44
2019-04-10T06:06:20.043Z,3.44
2019-04-10T06:07:19.219Z,3.50
2019-04-10T06:08:19.055Z,3.37
2019-04-10T06:09:19.017Z,3.45
2019-04-10T06:10:19.630Z,3.48
2019-04-10T06:11:19.015Z,3.47
2019-04-10T06:12:20.239Z,3.59
2019-04-10T06:13:19.331Z,3.58
2019-04-10T06:14:19.007Z,3.59
2019-04-10T06:15:19.154Z,3.55
2019-04-10T06:16:19.553Z,3.76
2019-04-10T06:17:18.936Z,3.66
2019-04-10T06:18:18.924Z,3.63
2019-04-10T06:19:19.950Z,3.60
2019-04-10T06:20:18.908Z,3.74
2019-04-10T06:21:18.944Z,3.77
2019-04-10T06:22:18.892Z,3.66
2019-04-10T06:23:19.210Z,3.76
2019-04-10T06:24:18.885Z,3.77
2019-04-10T06:25:21.296Z,3.83
2019-04-10T06:26:19.912Z,3.78
2019-04-10T06:27:18.823Z,3.84
2019-04-10T06:28:18.819Z,3.84
2019-04-10T06:29:19.201Z,3.91
2019-04-10T06:30:19.718Z,3.91
2019-04-10T06:31:18.781Z,3.98
2019-04-10T06:32:19.176Z,3.98
2019-04-10T06:33:20.032Z,3.98
2019-04-10T06:34:18.990Z,3.96
2019-04-10T06:35:19.765Z,3.98
2019-04-10T06:36:19.513Z,4.06
2019-04-10T06:37:18.750Z,4.10
2019-04-10T06:38:19.028Z,4.06
2019-04-10T06:39:18.699Z,4.10
2019-04-10T06:40:22.241Z,4.12
2019-04-10T06:41:19.679Z,4.12
2019-04-10T06:42:18.679Z,4.22
2019-04-10T06:43:19.109Z,4.35
2019-04-10T06:44:19.557Z,4.44
2019-04-10T06:45:19.758Z,4.45
2019-04-10T06:46:18.662Z,4.58
2019-04-10T06:47:18.621Z,4.63
2019-04-10T06:48:19.250Z,4.75
2019-04-10T06:49:18.675Z,4.74
2019-04-10T06:50:18.982Z,4.75
2019-04-10T06:51:20.230Z,4.80
2019-04-10T06:52:18.651Z,4.77
2019-04-10T06:53:18.757Z,4.70
2019-04-10T06:54:18.755Z,4.59
2019-04-10T06:55:18.652Z,4.78
2019-04-10T06:56:18.780Z,4.89
2019-04-10T06:57:18.745Z,4.97
2019-04-10T06:58:18.500Z,5.11
2019-04-10T06:59:18.535Z,5.15
2019-04-10T07:00:19.766Z,5.11
2019-04-10T07:01:20.945Z,5.26
2019-04-10T07:02:24.574Z,5.10
2019-04-10T07:03:19.469Z,5.10
2019-04-10T07:04:21.896Z,5.08
2019-04-10T07:05:19.913Z,5.20
2019-04-10T07:06:21.943Z,5.33
2019-04-10T07:07:21.961Z,5.17
2019-04-10T07:08:22.395Z,5.15
2019-04-10T07:09:21.319Z,5.14
2019-04-10T07:10:27.413Z,5.15
2019-04-10T07:11:21.679Z,5.14
2019-04-10T07:12:18.637Z,5.28
2019-04-10T07:13:18.341Z,5.25
2019-04-10T07:14:18.458Z,5.28
2019-04-10T07:15:21.164Z,5.28
2019-04-10T07:16:20.079Z,5.26
2019-04-10T07:17:18.315Z,5.23
2019-04-10T07:18:20.248Z,5.26
2019-04-10T07:19:18.273Z,5.35
2019-04-10T07:20:19.478Z,5.26
2019-04-10T07:21:18.269Z,5.30
2019-04-10T07:22:18.246Z,5.15
2019-04-10T07:23:22.466Z,5.14
2019-04-10T07:24:19.217Z,5.18
2019-04-10T07:25:18.210Z,5.20
2019-04-10T07:26:27.363Z,5.28
2019-04-10T07:27:19.530Z,5.23
2019-04-10T07:28:19.426Z,5.33
2019-04-10T07:29:21.072Z,5.39
2019-04-10T07:30:19.494Z,5.33
2019-04-10T07:31:19.335Z,5.41
2019-04-10T07:32:19.333Z,5.30
2019-04-10T07:33:19.611Z,5.36
2019-04-10T07:34:23.999Z,5.33
2019-04-10T07:35:20.294Z,5.47
2019-04-10T07:36:18.266Z,5.47
2019-04-10T07:37:22.495Z,5.51
2019-04-10T07:38:21.186Z,5.61
2019-04-10T07:39:18.389Z,5.69
2019-04-10T07:40:18.628Z,5.56
2019-04-10T07:41:21.371Z,5.69
2019-04-10T07:42:26.844Z,5.59
2019-04-10T07:43:25.466Z,5.71
2019-04-10T07:44:19.009Z,5.76
2019-04-10T07:45:17.999Z,5.84
2019-04-10T07:46:17.995Z,5.91
2019-04-10T07:47:17.995Z,5.89
2019-04-10T07:48:18.465Z,5.97
2019-04-10T07:49:19.420Z,5.98
2019-04-10T07:50:18.394Z,6.09
2019-04-10T07:51:18.998Z,6.09
2019-04-10T07:52:20.839Z,6.07
2019-04-10T07:53:18.879Z,5.98
2019-04-10T07:54:20.988Z,5.94
2019-04-10T07:55:18.995Z,5.98
2019-04-10T07:56:20.688Z,5.94
2019-04-10T07:57:17.869Z,5.98
2019-04-10T07:58:17.859Z,6.04
2019-04-10T07:59:18.477Z,6.08
2019-04-10T08:00:18.148Z,6.11
2019-04-10T08:01:18.265Z,6.14
2019-04-10T08:02:17.835Z,6.08
2019-04-10T08:03:18.842Z,6.08
2019-04-10T08:04:18.272Z,6.20
2019-04-10T08:05:18.834Z,6.19
2019-04-10T08:06:17.941Z,6.20
2019-04-10T08:07:26.714Z,6.30
2019-04-10T08:08:19.399Z,6.28
2019-04-10T08:09:18.831Z,6.27
2019-04-10T08:10:18.014Z,6.19
2019-04-10T08:11:17.722Z,6.36
2019-04-10T08:12:17.728Z,6.31
2019-04-10T08:13:17.703Z,6.28
2019-04-10T08:14:17.700Z,6.48
2019-04-10T08:15:18.701Z,6.45
2019-04-10T08:16:18.922Z,6.56
2019-04-10T08:17:17.712Z,6.64
2019-04-10T08:18:17.669Z,6.67
2019-04-10T08:19:18.493Z,6.74
2019-04-10T08:20:17.762Z,6.77
2019-04-10T08:21:17.767Z,6.89
2019-04-10T08:22:17.984Z,7.02
2019-04-10T08:23:17.638Z,7.05
2019-04-10T08:24:18.171Z,7.10
2019-04-10T08:25:18.456Z,6.92
2019-04-10T08:26:18.353Z,6.89
2019-04-10T08:27:17.613Z,6.89
2019-04-10T08:28:17.882Z,6.84
2019-04-10T08:29:18.228Z,6.77
2019-04-10T08:30:17.550Z,6.74
2019-04-10T08:31:17.512Z,6.77
2019-04-10T08:32:18.102Z,6.75
2019-04-10T08:33:17.575Z,6.87
2019-04-10T08:34:17.478Z,7.05
2019-04-10T08:35:17.531Z,7.29
2019-04-10T08:36:17.466Z,7.42
2019-04-10T08:37:18.753Z,7.67
2019-04-10T08:38:17.655Z,7.73
2019-04-10T08:39:32.003Z,7.75
2019-04-10T08:40:19.079Z,7.82
2019-04-10T08:41:17.404Z,8.00
2019-04-10T08:42:17.392Z,8.37
2019-04-10T08:43:17.387Z,8.38
2019-04-10T08:44:17.765Z,8.63
2019-04-10T08:45:17.390Z,8.74
2019-04-10T08:46:17.740Z,9.10
2019-04-10T08:47:17.371Z,9.37
2019-04-10T08:48:17.703Z,9.58
2019-04-10T08:49:18.320Z,9.58
2019-04-10T08:50:17.446Z,9.87
2019-04-10T08:51:17.308Z,9.66
2019-04-10T08:52:17.301Z,9.82
2019-04-10T08:53:18.036Z,9.98
2019-04-10T08:54:18.348Z,9.74
2019-04-10T08:55:17.736Z,9.92
2019-04-10T08:56:18.356Z,10.12
2019-04-10T08:57:17.257Z,10.15
2019-04-10T08:58:17.234Z,10.13
2019-04-10T08:59:17.423Z,10.15
2019-04-10T09:00:18.501Z,10.07
2019-04-10T09:01:17.461Z,10.01
2019-04-10T09:02:18.052Z,9.62
2019-04-10T09:03:17.183Z,9.59
2019-04-10T09:04:17.869Z,9.37
2019-04-10T09:05:17.523Z,9.59
2019-04-10T09:06:17.504Z,9.74
2019-04-10T09:07:17.135Z,9.80
2019-04-10T09:08:17.138Z,9.80
2019-04-10T09:09:17.372Z,9.98
2019-04-10T09:10:17.107Z,10.09
2019-04-10T09:11:25.424Z,10.23
2019-04-10T09:12:18.075Z,10.20
2019-04-10T09:13:17.093Z,10.23
2019-04-10T09:14:17.141Z,10.30
2019-04-10T09:15:18.052Z,10.13
2019-04-10T09:16:18.122Z,10.16
2019-04-10T09:17:17.412Z,10.34
2019-04-10T09:18:17.055Z,10.41
2019-04-10T09:19:18.850Z,10.46
2019-04-10T09:20:16.999Z,10.35
2019-04-10T09:21:17.441Z,10.09
2019-04-10T09:22:16.970Z,10.01
2019-04-10T09:23:35.351Z,9.91
2019-04-10T09:24:17.941Z,9.50
2019-04-10T09:25:17.869Z,9.29
2019-04-10T09:26:17.044Z,9.13
2019-04-10T09:27:17.184Z,9.10
2019-04-10T09:28:18.093Z,9.00
2019-04-10T09:29:18.089Z,8.92
2019-04-10T09:30:16.902Z,8.89
2019-04-10T09:31:17.724Z,8.94
2019-04-10T09:32:18.021Z,8.82
2019-04-10T09:33:24.254Z,8.88
2019-04-10T09:34:17.999Z,8.97
2019-04-10T09:35:16.855Z,9.11
2019-04-10T09:36:18.122Z,9.08
2019-04-10T09:37:17.781Z,9.14
2019-04-10T09:38:16.889Z,9.51
2019-04-10T09:39:17.143Z,10.02
2019-04-10T09:40:16.775Z,10.48
2019-04-10T09:41:17.504Z,10.93
2019-04-10T09:42:17.176Z,11.40
2019-04-10T09:43:17.740Z,11.80
2019-04-10T09:44:16.779Z,11.97
2019-04-10T09:45:17.758Z,11.83
2019-04-10T09:46:16.744Z,11.77
2019-04-10T09:47:16.695Z,11.73
2019-04-10T09:48:16.789Z,11.63
2019-04-10T09:49:16.714Z,11.70
2019-04-10T09:50:17.250Z,11.69
2019-04-10T09:51:18.439Z,11.95
2019-04-10T09:52:16.710Z,11.97
2019-04-10T09:53:17.066Z,11.81
2019-04-10T09:54:17.512Z,11.84
2019-04-10T09:55:16.624Z,11.81
2019-04-10T09:56:17.263Z,12.00
2019-04-10T09:57:17.549Z,12.04
2019-04-10T09:58:17.555Z,12.10
2019-04-10T09:59:16.576Z,12.06
2019-04-10T10:00:16.577Z,12.17
2019-04-10T10:01:17.777Z,12.09
2019-04-10T10:02:17.613Z,12.18
2019-04-10T10:03:17.394Z,12.22
2019-04-10T10:04:17.345Z,12.13
2019-04-10T10:05:16.539Z,12.22
2019-04-10T10:06:24.353Z,12.39
2019-04-10T10:07:18.423Z,12.09
2019-04-10T10:08:16.478Z,12.22
2019-04-10T10:09:17.542Z,12.36
2019-04-10T10:10:17.206Z,12.21
2019-04-10T10:11:16.439Z,12.21
2019-04-10T10:12:16.446Z,12.49
2019-04-10T10:13:17.269Z,12.79
2019-04-10T10:14:16.773Z,12.85
2019-04-10T10:15:16.886Z,12.87
2019-04-10T10:16:16.986Z,12.83
2019-04-10T10:17:16.891Z,13.13
2019-04-10T10:18:17.239Z,13.09
2019-04-10T10:19:16.387Z,12.85
2019-04-10T10:20:16.532Z,12.76
2019-04-10T10:21:16.669Z,13.00
2019-04-10T10:22:16.823Z,13.11
2019-04-10T10:23:16.523Z,13.01
2019-04-10T10:24:16.371Z,13.00
2019-04-10T10:25:17.279Z,13.08
2019-04-10T10:26:16.278Z,13.08
2019-04-10T10:27:16.267Z,12.79
2019-04-10T10:28:16.255Z,12.65
2019-04-10T10:29:16.249Z,12.90
2019-04-10T10:30:16.234Z,13.13
2019-04-10T10:31:16.257Z,13.38
2019-04-10T10:32:17.119Z,13.44
2019-04-10T10:33:17.332Z,13.42
2019-04-10T10:34:16.436Z,13.54
2019-04-10T10:35:16.790Z,13.75
2019-04-10T10:36:16.189Z,13.81
2019-04-10T10:37:16.616Z,13.75
2019-04-10T10:38:16.146Z,13.60
2019-04-10T10:39:17.226Z,13.54
2019-04-10T10:40:17.168Z,13.52
2019-04-10T10:41:16.120Z,13.56
2019-04-10T10:42:16.127Z,13.47
2019-04-10T10:43:16.223Z,13.41
2019-04-10T10:44:17.229Z,13.53
2019-04-10T10:45:16.070Z,13.59
2019-04-10T10:46:16.078Z,13.93
2019-04-10T10:47:16.047Z,14.20
2019-04-10T10:48:16.056Z,14.11
2019-04-10T10:49:16.046Z,14.14
2019-04-10T10:50:17.103Z,14.20
2019-04-10T10:51:16.005Z,14.29
2019-04-10T10:52:16.013Z,14.18
2019-04-10T10:53:16.406Z,13.75
2019-04-10T10:54:16.874Z,14.07
2019-04-10T10:55:15.972Z,14.14
2019-04-10T10:56:16.161Z,14.20
2019-04-10T10:57:15.945Z,14.48
2019-04-10T10:58:15.953Z,14.40
2019-04-10T10:59:15.921Z,14.43
2019-04-10T11:00:17.000Z,14.66
2019-04-10T11:01:15.903Z,14.91
2019-04-10T11:02:17.025Z,15.27
2019-04-10T11:03:16.197Z,15.27
2019-04-10T11:04:15.869Z,15.09
2019-04-10T11:05:16.989Z,14.88
2019-04-10T11:06:16.742Z,14.84
2019-04-10T11:07:16.144Z,14.81
2019-04-10T11:08:15.832Z,14.88
2019-04-10T11:09:15.872Z,15.14
2019-04-10T11:10:19.763Z,14.72
2019-04-10T11:11:17.084Z,14.99
2019-04-10T11:12:15.913Z,14.91
2019-04-10T11:13:16.678Z,14.60
2019-04-10T11:14:16.074Z,14.35
2019-04-10T11:15:16.226Z,14.26
2019-04-10T11:16:17.017Z,14.12
2019-04-10T11:17:16.054Z,14.17
2019-04-10T11:18:15.869Z,14.07
2019-04-10T11:19:15.708Z,13.83
2019-04-10T11:20:15.697Z,14.07
2019-04-10T11:21:16.789Z,14.04
2019-04-10T11:22:21.814Z,14.00
2019-04-10T11:23:18.106Z,13.79
2019-04-10T11:24:15.663Z,13.65
2019-04-10T11:25:15.787Z,13.56
2019-04-10T11:26:19.966Z,13.47
2019-04-10T11:27:17.789Z,13.68
2019-04-10T11:28:16.300Z,14.03
2019-04-10T11:29:15.600Z,14.35
2019-04-10T11:30:16.086Z,14.45
2019-04-10T11:31:15.905Z,14.43
2019-04-10T11:32:15.573Z,14.33
2019-04-10T11:33:17.465Z,14.66
2019-04-10T11:34:16.583Z,14.84
2019-04-10T11:35:15.714Z,14.86
2019-04-10T11:36:15.525Z,15.14
2019-04-10T11:37:24.142Z,15.06
2019-04-10T11:38:17.579Z,15.06
2019-04-10T11:39:22.582Z,15.17
2019-04-10T11:40:18.095Z,15.25
2019-04-10T11:41:17.647Z,15.25
2019-04-10T11:42:15.462Z,15.35
2019-04-10T11:43:16.422Z,15.21
2019-04-10T11:44:17.173Z,15.21
2019-04-10T11:45:17.091Z,14.89
2019-04-10T11:46:15.434Z,14.48
2019-04-10T11:47:17.262Z,14.45
2019-04-10T11:48:16.444Z,14.88
2019-04-10T11:49:17.250Z,14.96
2019-04-10T11:50:17.778Z,15.07
2019-04-10T11:51:16.470Z,15.04
2019-04-10T11:52:17.219Z,15.10
2019-04-10T11:53:18.695Z,14.97
2019-04-10T11:54:17.397Z,15.04
2019-04-10T11:56:18.885Z,15.24
2019-04-10T11:57:17.699Z,15.17
2019-04-10T11:58:17.656Z,14.99
2019-04-10T11:59:17.678Z,14.85
2019-04-10T12:00:19.620Z,15.10
2019-04-10T12:01:15.367Z,15.18
2019-04-10T12:02:20.403Z,15.02
2019-04-10T12:03:18.345Z,14.94
2019-04-10T12:04:19.255Z,14.86
2019-04-10T12:05:19.844Z,14.65
2019-04-10T12:06:17.420Z,14.55
2019-04-10T12:07:49.150Z,14.65
2019-04-10T12:09:57.107Z,14.79
2019-04-10T12:11:19.820Z,14.94
2019-04-10T12:12:15.140Z,14.72
2019-04-10T12:13:17.065Z,14.62
2019-04-10T12:14:15.310Z,14.68
2019-04-10T12:15:17.055Z,14.85
2019-04-10T12:16:15.125Z,14.91
2019-04-10T12:17:16.041Z,15.25
2019-04-10T12:18:16.085Z,15.57
2019-04-10T12:19:15.278Z,15.88
2019-04-10T12:20:15.053Z,16.10
2019-04-10T12:21:15.724Z,15.98
2019-04-10T12:22:15.755Z,16.29
2019-04-10T12:23:15.101Z,15.97
2019-04-10T12:24:16.032Z,15.29
2019-04-10T12:25:14.998Z,15.11
2019-04-10T12:26:15.815Z,15.04
2019-04-10T12:27:14.981Z,15.19
2019-04-10T12:28:15.852Z,15.19
2019-04-10T12:29:14.953Z,15.11
2019-04-10T12:30:15.351Z,15.40
2019-04-10T12:31:15.593Z,15.40
2019-04-10T12:32:14.944Z,15.51
2019-04-10T12:33:14.922Z,15.51
2019-04-10T12:34:15.276Z,15.65
2019-04-10T12:35:15.203Z,15.77
2019-04-10T12:36:14.935Z,16.09
2019-04-10T12:37:15.396Z,15.86
2019-04-10T12:38:15.108Z,15.77
2019-04-10T12:39:14.863Z,15.43
2019-04-10T12:40:14.840Z,14.97
2019-04-10T12:41:15.123Z,14.60
2019-04-10T12:42:14.818Z,14.23
2019-04-10T12:43:14.933Z,13.93
2019-04-10T12:44:15.826Z,13.54
2019-04-10T12:45:15.803Z,13.30
2019-04-10T12:46:14.982Z,12.82
2019-04-10T12:47:15.425Z,12.57
2019-04-10T12:48:14.751Z,12.55
2019-04-10T12:49:15.095Z,12.18
2019-04-10T12:50:14.797Z,12.18
2019-04-10T12:51:14.770Z,11.99
2019-04-10T12:52:14.737Z,12.02
2019-04-10T12:53:15.627Z,11.97
2019-04-10T12:54:14.709Z,12.09
2019-04-10T12:55:14.681Z,11.94
2019-04-10T12:56:15.715Z,11.86
2019-04-10T12:57:14.886Z,11.81
2019-04-10T12:58:17.490Z,11.83
2019-04-10T12:59:15.211Z,11.91
2019-04-10T13:00:15.882Z,11.86
2019-04-10T13:01:14.626Z,11.94
2019-04-10T13:02:14.783Z,11.75
2019-04-10T13:03:14.704Z,11.90
2019-04-10T13:04:15.779Z,11.87
2019-04-10T13:05:14.571Z,11.75
2019-04-10T13:06:15.595Z,11.69
2019-04-10T13:07:15.715Z,11.52
2019-04-10T13:08:21.193Z,11.44
2019-04-10T13:09:16.021Z,11.41
2019-04-10T13:10:14.971Z,11.18
2019-04-10T13:11:14.503Z,11.15
2019-04-10T13:12:15.288Z,11.18
2019-04-10T13:13:14.611Z,11.32